KCNM/CNM METAR and TAF weather

Enter ICAO airport designator
Station Type Date Time Source
KCNM METAR 2022/11/30 10:53 UTC NOAA

KCNM 301053Z AUTO 33004KT 10SM CLR M01/M03 A3029 RMK AO2 SLP240 T10061033


Station Type Date Time Source
KCNM Decoded METAR 2022/11/30 10:53 UTC NOAA

CARLSBAD CAVERN CITY, NM, United States (KCNM) 32-20N 104-16W 985M
Nov 30, 2022 - 05:53 AM EST / 2022.11.30 1053 UTC
Wind: from the NNW (330 degrees) at 5 MPH (4 KT):0
Visibility: 10 mile(s):0
Sky conditions: clear
Temperature: 30.9 F (-0.6 C)
Windchill: 26 F (-3 C):1
Dew Point: 26.1 F (-3.3 C)
Relative Humidity: 81%
Pressure (altimeter): 30.29 in. Hg (1025 hPa)
ob: KCNM 301053Z AUTO 33004KT 10SM CLR M01/M03 A3029 RMK AO2 SLP240 T10061033
cycle: 11

Station Type Date Time Source
KCNM TAF 2022/11/30 12:22 UTC NOAA

TAF KCNM 301120Z 3012/0112 35004KT P6SM SCT200
FM301400 10007KT P6SM SCT250
FM010000 13005KT P6SM SCT200

Example: see airport list